createdAt,value
2023-01-17T00:00:25.966Z,4.90
2023-01-17T00:01:30.007Z,4.90
2023-01-17T00:02:32.004Z,4.90
2023-01-17T00:03:35.077Z,5.00
2023-01-17T00:04:55.748Z,5.00
2023-01-17T00:06:15.866Z,5.00
2023-01-17T00:07:38.028Z,5.00
2023-01-17T00:08:58.565Z,5.00
2023-01-17T00:10:03.593Z,5.00
2023-01-17T00:11:05.847Z,5.00
2023-01-17T00:12:08.122Z,5.00
2023-01-17T00:13:09.865Z,5.20
2023-01-17T00:14:13.110Z,5.10
2023-01-17T00:15:16.771Z,5.10
2023-01-17T00:16:18.837Z,5.10
2023-01-17T00:17:22.073Z,5.10
2023-01-17T00:18:23.991Z,5.10
2023-01-17T00:19:44.203Z,5.20
2023-01-17T00:21:06.036Z,5.10
2023-01-17T00:22:30.533Z,5.20
2023-01-17T00:23:50.953Z,5.10
2023-01-17T00:25:11.271Z,5.20
2023-01-17T00:26:19.315Z,5.10
2023-01-17T00:27:21.045Z,5.20
2023-01-17T00:28:24.042Z,5.20
2023-01-17T00:29:25.712Z,5.20
2023-01-17T00:30:28.906Z,5.20
2023-01-17T00:31:33.480Z,5.20
2023-01-17T00:32:35.377Z,5.20
2023-01-17T00:33:37.351Z,5.30
2023-01-17T00:34:39.154Z,5.30
2023-01-17T00:35:40.961Z,5.30
2023-01-17T00:36:44.000Z,5.20
2023-01-17T00:37:45.864Z,5.30
2023-01-17T00:38:47.923Z,5.30
2023-01-17T00:39:49.730Z,5.40
2023-01-17T00:40:52.073Z,5.40
2023-01-17T00:41:53.906Z,5.50
2023-01-17T00:43:16.642Z,5.50
2023-01-17T00:44:37.282Z,5.50
2023-01-17T00:45:57.887Z,5.50
2023-01-17T00:47:18.617Z,5.50
2023-01-17T00:48:39.111Z,5.50
2023-01-17T00:49:59.432Z,5.50
2023-01-17T00:51:22.236Z,5.50
2023-01-17T00:52:42.649Z,5.50
2023-01-17T00:54:03.352Z,5.50
2023-01-17T00:55:24.543Z,5.50
2023-01-17T00:56:45.185Z,5.50
2023-01-17T00:58:06.492Z,5.40
2023-01-17T00:59:27.214Z,5.40
2023-01-17T01:00:47.804Z,5.50
2023-01-17T01:02:08.454Z,5.50
2023-01-17T01:03:30.347Z,5.50
2023-01-17T01:04:50.877Z,5.50
2023-01-17T01:06:11.142Z,5.50
2023-01-17T01:07:31.852Z,5.50
2023-01-17T01:08:53.329Z,5.50
2023-01-17T01:10:14.010Z,5.50
2023-01-17T01:11:37.578Z,5.50
2023-01-17T01:12:58.229Z,5.50
2023-01-17T01:14:22.132Z,5.50
2023-01-17T01:15:42.870Z,5.50
2023-01-17T01:17:03.491Z,5.50
2023-01-17T01:18:28.567Z,5.50
2023-01-17T01:19:48.897Z,5.50
2023-01-17T01:21:09.297Z,5.50
2023-01-17T01:22:30.179Z,5.40
2023-01-17T01:23:50.362Z,5.50
2023-01-17T01:25:10.529Z,5.50
2023-01-17T01:26:31.014Z,5.50
2023-01-17T01:27:51.735Z,5.60
2023-01-17T01:29:12.215Z,5.60
2023-01-17T01:30:32.732Z,5.60
2023-01-17T01:31:53.437Z,5.60
2023-01-17T01:33:13.692Z,5.70
2023-01-17T01:34:16.748Z,5.60
2023-01-17T01:35:18.802Z,5.60
2023-01-17T01:36:20.968Z,5.60
2023-01-17T01:37:22.768Z,5.60
2023-01-17T01:38:25.546Z,5.60
2023-01-17T01:39:27.438Z,5.60
2023-01-17T01:40:31.884Z,5.70
2023-01-17T01:41:33.805Z,5.60
2023-01-17T01:42:35.858Z,5.70
2023-01-17T01:43:52.575Z,5.70
2023-01-17T01:44:55.800Z,5.80
2023-01-17T01:45:58.592Z,5.80
2023-01-17T01:47:00.772Z,5.90
2023-01-17T01:48:04.155Z,5.90
2023-01-17T01:49:17.550Z,5.90
2023-01-17T01:50:23.149Z,5.90
2023-01-17T01:51:42.085Z,6.00
2023-01-17T01:52:51.192Z,6.00
2023-01-17T01:53:59.825Z,6.00
2023-01-17T01:55:05.691Z,6.10
2023-01-17T01:56:12.095Z,6.10
2023-01-17T01:57:20.862Z,6.10
2023-01-17T01:58:27.599Z,5.90
2023-01-17T01:59:30.999Z,6.20
2023-01-17T02:00:38.523Z,6.20
2023-01-17T02:01:42.013Z,6.20
2023-01-17T02:02:47.120Z,6.20
2023-01-17T02:03:49.805Z,6.30
2023-01-17T02:04:52.388Z,6.20
2023-01-17T02:05:54.776Z,6.30
2023-01-17T02:07:03.421Z,6.30
2023-01-17T02:08:11.793Z,6.40
2023-01-17T02:09:17.535Z,6.40
2023-01-17T02:10:19.720Z,6.40
2023-01-17T02:11:23.575Z,6.50
2023-01-17T02:12:25.856Z,6.50
2023-01-17T02:13:28.440Z,6.50
2023-01-17T02:14:30.396Z,6.60
2023-01-17T02:15:39.720Z,6.60
2023-01-17T02:17:02.996Z,6.60
2023-01-17T02:18:37.317Z,6.60
2023-01-17T02:20:03.992Z,6.60
2023-01-17T02:21:13.320Z,6.60
2023-01-17T02:22:30.943Z,6.50
2023-01-17T02:23:57.400Z,6.50
2023-01-17T02:25:15.480Z,6.60
2023-01-17T02:26:42.357Z,6.60
2023-01-17T02:27:59.203Z,6.60
2023-01-17T02:29:28.373Z,6.60
2023-01-17T02:30:35.823Z,6.50
2023-01-17T02:31:49.490Z,6.50
2023-01-17T02:33:20.997Z,6.50
2023-01-17T02:34:34.492Z,6.50
2023-01-17T02:35:58.430Z,6.50
2023-01-17T02:37:34.916Z,6.50
2023-01-17T02:38:48.820Z,6.50
2023-01-17T02:40:00.005Z,6.40
2023-01-17T02:41:11.337Z,6.40
2023-01-17T02:42:17.980Z,6.40
2023-01-17T02:43:21.927Z,6.40
2023-01-17T02:44:24.048Z,6.30
2023-01-17T02:45:25.927Z,6.30
2023-01-17T02:46:30.753Z,6.30
2023-01-17T02:47:32.792Z,6.30
2023-01-17T02:48:37.837Z,6.20
2023-01-17T02:49:39.846Z,6.20
2023-01-17T02:51:17.142Z,6.20
2023-01-17T02:52:40.302Z,6.20
2023-01-17T02:53:54.758Z,6.20
2023-01-17T02:55:14.862Z,6.20
2023-01-17T02:56:19.470Z,6.20
2023-01-17T02:57:42.803Z,6.20
2023-01-17T02:59:11.581Z,6.20
2023-01-17T03:00:40.037Z,6.20
2023-01-17T03:02:01.964Z,6.10
2023-01-17T03:03:30.646Z,6.10
2023-01-17T03:04:37.057Z,6.20
2023-01-17T03:05:54.744Z,6.20
2023-01-17T03:07:03.431Z,6.20
2023-01-17T03:08:06.656Z,6.20
2023-01-17T03:09:09.880Z,6.20
2023-01-17T03:10:15.416Z,6.20
2023-01-17T03:11:18.796Z,6.20
2023-01-17T03:12:21.930Z,6.20
2023-01-17T03:13:23.840Z,6.30
2023-01-17T03:14:25.904Z,6.30
2023-01-17T03:15:27.969Z,6.40
2023-01-17T03:16:33.766Z,6.40
2023-01-17T03:17:35.954Z,6.40
2023-01-17T03:18:39.425Z,6.50
2023-01-17T03:19:41.456Z,6.50
2023-01-17T03:20:44.681Z,6.50
2023-01-17T03:21:46.463Z,6.50
2023-01-17T03:22:48.521Z,6.50
2023-01-17T03:23:50.861Z,6.60
2023-01-17T03:24:52.687Z,6.60
2023-01-17T03:25:54.683Z,6.60
2023-01-17T03:26:57.010Z,6.80
2023-01-17T03:27:58.701Z,6.60
2023-01-17T03:29:02.012Z,6.60
2023-01-17T03:30:04.791Z,6.60
2023-01-17T03:31:07.031Z,6.60
2023-01-17T03:32:09.284Z,6.60
2023-01-17T03:33:11.123Z,6.60
2023-01-17T03:34:12.840Z,6.50
2023-01-17T03:35:15.439Z,6.50
2023-01-17T03:36:17.474Z,6.50
2023-01-17T03:37:19.387Z,6.40
2023-01-17T03:38:21.540Z,6.40
2023-01-17T03:39:23.454Z,6.40
2023-01-17T03:40:25.160Z,6.30
2023-01-17T03:41:27.033Z,6.20
2023-01-17T03:42:28.895Z,6.20
2023-01-17T03:43:30.695Z,6.10
2023-01-17T03:44:34.180Z,6.10
2023-01-17T03:45:36.244Z,6.00
2023-01-17T03:46:40.341Z,6.00
2023-01-17T03:47:42.129Z,6.00
2023-01-17T03:48:44.558Z,6.00
2023-01-17T03:49:46.284Z,5.80
2023-01-17T03:50:51.480Z,5.70
2023-01-17T03:51:53.316Z,5.60
2023-01-17T03:52:55.014Z,5.50
2023-01-17T03:53:57.113Z,5.30
2023-01-17T03:54:58.792Z,5.30
2023-01-17T03:56:00.609Z,5.10
2023-01-17T03:57:02.474Z,4.90
2023-01-17T03:58:04.321Z,4.80
2023-01-17T03:59:09.723Z,4.80
2023-01-17T04:00:13.236Z,4.70
2023-01-17T04:01:15.073Z,4.60
2023-01-17T04:02:17.549Z,4.50
2023-01-17T04:03:19.643Z,4.50
2023-01-17T04:04:21.617Z,4.40
2023-01-17T04:05:23.613Z,4.40
2023-01-17T04:06:25.625Z,4.30
2023-01-17T04:07:29.079Z,4.30
2023-01-17T04:08:30.904Z,4.30
2023-01-17T04:09:34.262Z,4.30
2023-01-17T04:10:36.139Z,4.30
2023-01-17T04:11:38.132Z,4.20
2023-01-17T04:12:40.130Z,4.30
2023-01-17T04:13:41.879Z,4.30
2023-01-17T04:14:44.152Z,4.30
2023-01-17T04:15:48.842Z,4.40
2023-01-17T04:16:50.753Z,4.40
2023-01-17T04:17:52.609Z,4.40
2023-01-17T04:18:54.620Z,4.50
2023-01-17T04:19:56.519Z,4.50
2023-01-17T04:20:58.407Z,4.50
2023-01-17T04:22:00.161Z,4.60
2023-01-17T04:23:02.503Z,4.60
2023-01-17T04:24:04.504Z,4.70
2023-01-17T04:25:06.338Z,4.70
2023-01-17T04:26:12.083Z,4.70
2023-01-17T04:27:14.630Z,4.80
2023-01-17T04:28:16.673Z,4.80
2023-01-17T04:29:18.422Z,4.90
2023-01-17T04:30:20.920Z,4.90
2023-01-17T04:31:22.763Z,5.00
2023-01-17T04:32:24.717Z,5.10
2023-01-17T04:33:29.135Z,5.10
2023-01-17T04:34:31.014Z,5.20
2023-01-17T04:35:33.921Z,5.20
2023-01-17T04:36:35.945Z,5.20
2023-01-17T04:37:38.585Z,5.30
2023-01-17T04:38:40.462Z,5.30
2023-01-17T04:39:42.196Z,5.40
2023-01-17T04:40:44.180Z,5.40
2023-01-17T04:41:46.071Z,5.50
2023-01-17T04:42:48.727Z,5.50
2023-01-17T04:43:50.779Z,5.50
2023-01-17T04:44:52.623Z,5.50
2023-01-17T04:45:56.182Z,5.60
2023-01-17T04:46:58.079Z,5.50
2023-01-17T04:48:07.169Z,5.60
2023-01-17T04:49:09.063Z,5.60
2023-01-17T04:50:12.942Z,5.60
2023-01-17T04:51:14.840Z,5.60
2023-01-17T04:52:18.716Z,5.70
2023-01-17T04:53:20.549Z,5.70
2023-01-17T04:54:22.490Z,5.70
2023-01-17T04:55:24.343Z,5.70
2023-01-17T04:56:26.496Z,5.70
2023-01-17T04:57:30.161Z,5.70
2023-01-17T04:58:33.462Z,5.80
2023-01-17T04:59:35.369Z,5.80
2023-01-17T05:00:37.299Z,5.80
2023-01-17T05:01:39.352Z,5.80
2023-01-17T05:02:41.913Z,5.80
2023-01-17T05:03:43.760Z,5.80
2023-01-17T05:04:45.718Z,5.80
2023-01-17T05:05:47.979Z,5.80
2023-01-17T05:06:49.874Z,5.80
2023-01-17T05:07:59.041Z,5.80
2023-01-17T05:09:02.839Z,5.80
2023-01-17T05:10:05.308Z,5.80
2023-01-17T05:11:07.347Z,5.90
2023-01-17T05:12:09.305Z,5.90
2023-01-17T05:13:11.076Z,5.90
2023-01-17T05:14:13.321Z,5.90
2023-01-17T05:15:15.196Z,5.90
2023-01-17T05:16:19.617Z,5.90
2023-01-17T05:17:21.431Z,6.00
2023-01-17T05:18:23.460Z,5.90
2023-01-17T05:19:27.173Z,6.00
2023-01-17T05:20:29.099Z,6.00
2023-01-17T05:21:31.886Z,6.00
2023-01-17T05:22:33.742Z,6.00
2023-01-17T05:23:35.382Z,6.00
2023-01-17T05:24:37.596Z,6.00
2023-01-17T05:25:44.965Z,6.00
2023-01-17T05:26:54.885Z,6.10
2023-01-17T05:27:57.341Z,6.10
2023-01-17T05:29:01.200Z,6.10
2023-01-17T05:30:03.239Z,6.10
2023-01-17T05:31:05.226Z,6.10
2023-01-17T05:32:07.450Z,6.10
2023-01-17T05:33:10.384Z,6.00
2023-01-17T05:34:14.672Z,6.00
2023-01-17T05:35:19.617Z,6.00
2023-01-17T05:36:21.342Z,5.90
2023-01-17T05:37:23.055Z,6.00
2023-01-17T05:38:25.037Z,6.00
2023-01-17T05:39:27.086Z,6.00
2023-01-17T05:40:30.877Z,5.90
2023-01-17T05:41:32.586Z,5.80
2023-01-17T05:42:34.459Z,5.80
2023-01-17T05:43:36.178Z,5.80
2023-01-17T05:44:38.835Z,5.80
2023-01-17T05:45:40.793Z,5.80
2023-01-17T05:46:42.690Z,5.80
2023-01-17T05:47:46.021Z,5.80
2023-01-17T05:48:47.717Z,5.80
2023-01-17T05:49:49.533Z,5.80
2023-01-17T05:50:52.241Z,5.80
2023-01-17T05:51:55.022Z,5.80
2023-01-17T05:53:03.059Z,5.90
2023-01-17T05:54:05.971Z,5.90
2023-01-17T05:55:08.606Z,5.90
2023-01-17T05:56:10.338Z,5.90
2023-01-17T05:57:13.528Z,5.90
2023-01-17T05:58:18.694Z,5.90
2023-01-17T05:59:35.959Z,5.90
2023-01-17T06:00:38.561Z,5.90
2023-01-17T06:01:40.201Z,5.90
2023-01-17T06:02:44.967Z,5.90
2023-01-17T06:03:46.798Z,5.90
2023-01-17T06:04:49.788Z,5.90
2023-01-17T06:05:52.122Z,5.90
2023-01-17T06:06:55.806Z,5.90
2023-01-17T06:07:58.043Z,5.90
2023-01-17T06:08:59.698Z,5.70
2023-01-17T06:10:01.379Z,5.90
2023-01-17T06:11:03.088Z,5.90
2023-01-17T06:12:05.167Z,5.90
2023-01-17T06:13:09.907Z,5.90
2023-01-17T06:14:11.920Z,5.90
2023-01-17T06:15:15.879Z,6.00
2023-01-17T06:16:17.672Z,6.00
2023-01-17T06:17:19.378Z,6.00
2023-01-17T06:18:21.081Z,6.00
2023-01-17T06:19:24.073Z,6.00
2023-01-17T06:20:26.928Z,6.00
2023-01-17T06:21:30.754Z,6.00
2023-01-17T06:22:33.177Z,6.00
2023-01-17T06:23:35.538Z,6.00
2023-01-17T06:24:37.266Z,5.90
2023-01-17T06:25:46.695Z,5.60
2023-01-17T06:26:48.444Z,5.90
2023-01-17T06:27:50.636Z,5.90
2023-01-17T06:28:52.395Z,5.90
2023-01-17T06:29:54.357Z,5.90
2023-01-17T06:30:56.319Z,5.90
2023-01-17T06:31:59.689Z,5.90
2023-01-17T06:33:04.625Z,5.90
2023-01-17T06:34:06.709Z,5.90
2023-01-17T06:35:09.189Z,6.00
2023-01-17T06:36:10.848Z,5.90
2023-01-17T06:37:13.078Z,5.90
2023-01-17T06:38:15.271Z,5.90
2023-01-17T06:39:17.337Z,5.90
2023-01-17T06:40:19.793Z,5.90
2023-01-17T06:41:23.460Z,5.80
2023-01-17T06:42:25.448Z,5.70
2023-01-17T06:43:28.917Z,5.70
2023-01-17T06:44:31.220Z,5.70
2023-01-17T06:45:35.585Z,5.70
2023-01-17T06:46:37.615Z,5.70
2023-01-17T06:47:40.599Z,5.70
2023-01-17T06:48:45.425Z,5.70
2023-01-17T06:49:47.134Z,5.70
2023-01-17T06:50:49.985Z,5.80
2023-01-17T06:51:51.833Z,5.80
2023-01-17T06:52:59.720Z,5.80
2023-01-17T06:54:01.445Z,5.70
2023-01-17T06:55:03.175Z,5.70
2023-01-17T06:56:05.258Z,5.70
2023-01-17T06:57:06.974Z,5.70
2023-01-17T06:58:09.659Z,5.70
2023-01-17T06:59:11.354Z,5.80
2023-01-17T07:00:13.777Z,5.80
2023-01-17T07:01:15.599Z,5.80
2023-01-17T07:02:17.435Z,5.80
2023-01-17T07:03:22.832Z,5.80
2023-01-17T07:04:24.705Z,5.80
2023-01-17T07:05:28.542Z,5.80
2023-01-17T07:06:30.343Z,5.80
2023-01-17T07:07:33.871Z,5.90
2023-01-17T07:08:39.174Z,5.80
2023-01-17T07:09:42.512Z,5.90
2023-01-17T07:10:45.534Z,5.80
2023-01-17T07:11:52.347Z,5.80
2023-01-17T07:12:59.960Z,5.80
2023-01-17T07:14:01.819Z,5.90
2023-01-17T07:15:03.901Z,5.80
2023-01-17T07:16:07.630Z,5.80
2023-01-17T07:17:13.802Z,5.80
2023-01-17T07:18:20.791Z,5.80
2023-01-17T07:19:23.768Z,5.80
2023-01-17T07:20:27.872Z,5.70
2023-01-17T07:22:55.157Z,5.70
2023-01-17T07:23:56.975Z,5.70
2023-01-17T07:25:01.013Z,5.70
2023-01-17T07:26:03.095Z,5.70
2023-01-17T07:27:04.948Z,5.70
2023-01-17T07:28:08.972Z,5.70
2023-01-17T07:29:11.000Z,5.70
2023-01-17T07:30:13.396Z,5.80
2023-01-17T07:31:15.205Z,5.80
2023-01-17T07:32:17.015Z,5.80
2023-01-17T07:33:19.148Z,5.80
2023-01-17T07:34:22.602Z,5.80
2023-01-17T07:35:26.759Z,5.90
2023-01-17T07:36:29.822Z,5.90
2023-01-17T07:37:31.724Z,5.90
2023-01-17T07:38:34.751Z,5.90
2023-01-17T07:39:37.339Z,5.90
2023-01-17T07:40:42.395Z,5.90
2023-01-17T07:41:45.012Z,5.90
2023-01-17T07:42:47.269Z,5.90
2023-01-17T07:43:49.125Z,5.80
2023-01-17T07:44:51.097Z,5.70
2023-01-17T07:45:53.522Z,5.70
2023-01-17T07:46:55.356Z,5.60
2023-01-17T07:47:58.225Z,5.60
2023-01-17T07:48:59.922Z,5.60
2023-01-17T07:50:02.124Z,5.60
2023-01-17T07:51:05.351Z,5.70
2023-01-17T07:52:08.635Z,5.70
2023-01-17T07:53:11.169Z,5.70
2023-01-17T07:54:12.963Z,5.70
2023-01-17T07:55:14.775Z,5.70
2023-01-17T07:56:17.945Z,5.80
2023-01-17T07:57:19.701Z,5.80
2023-01-17T07:58:22.219Z,5.80
2023-01-17T07:59:24.067Z,5.80
2023-01-17T08:00:27.641Z,5.80
2023-01-17T08:01:29.896Z,5.90
2023-01-17T08:02:31.864Z,5.90
2023-01-17T08:03:36.631Z,5.90
2023-01-17T08:04:39.439Z,6.00
2023-01-17T08:05:53.075Z,6.00
2023-01-17T08:06:55.112Z,6.00
2023-01-17T08:07:57.774Z,6.00
2023-01-17T08:08:59.730Z,6.00
2023-01-17T08:10:01.586Z,6.00
2023-01-17T08:11:03.832Z,6.00
2023-01-17T08:12:06.044Z,6.00
2023-01-17T08:13:12.389Z,6.00
2023-01-17T08:14:14.086Z,6.00
2023-01-17T08:15:18.325Z,6.00
2023-01-17T08:16:20.150Z,6.00
2023-01-17T08:17:22.133Z,6.10
2023-01-17T08:18:24.028Z,6.10
2023-01-17T08:19:25.710Z,6.10
2023-01-17T08:20:29.089Z,6.10
2023-01-17T08:21:31.160Z,6.10
2023-01-17T08:22:33.213Z,6.20
2023-01-17T08:23:34.978Z,6.20
2023-01-17T08:24:37.552Z,6.20
2023-01-17T08:25:40.883Z,6.30
2023-01-17T08:26:43.355Z,6.30
2023-01-17T08:27:45.229Z,6.30
2023-01-17T08:29:03.242Z,6.30
2023-01-17T08:30:07.316Z,6.30
2023-01-17T08:31:10.418Z,6.40
2023-01-17T08:32:14.087Z,6.40
2023-01-17T08:33:16.200Z,6.40
2023-01-17T08:34:18.483Z,6.40
2023-01-17T08:35:21.488Z,6.40
2023-01-17T08:36:25.823Z,6.40
2023-01-17T08:37:28.158Z,6.40
2023-01-17T08:38:29.886Z,6.50
2023-01-17T08:39:31.623Z,6.50
2023-01-17T08:40:35.123Z,6.50
2023-01-17T08:41:36.883Z,6.50
2023-01-17T08:42:41.075Z,6.50
2023-01-17T08:43:43.113Z,6.60
2023-01-17T08:44:44.837Z,6.60
2023-01-17T08:45:48.458Z,6.60
2023-01-17T08:46:50.499Z,6.70
2023-01-17T08:47:52.828Z,6.70
2023-01-17T08:48:56.545Z,6.70
2023-01-17T08:50:00.073Z,6.70
2023-01-17T08:51:02.857Z,6.70
2023-01-17T08:52:05.301Z,6.70
2023-01-17T08:53:07.243Z,6.70
2023-01-17T08:54:12.989Z,6.70
2023-01-17T08:55:14.917Z,6.70
2023-01-17T08:56:18.243Z,6.70
2023-01-17T08:57:21.991Z,6.70
2023-01-17T08:58:23.723Z,6.60
2023-01-17T08:59:25.654Z,6.60
2023-01-17T09:00:28.894Z,6.60
2023-01-17T09:01:42.117Z,6.60
2023-01-17T09:02:44.231Z,6.60
2023-01-17T09:03:48.189Z,6.60
2023-01-17T09:04:50.753Z,6.60
2023-01-17T09:06:11.479Z,6.50
2023-01-17T09:07:13.940Z,6.50
2023-01-17T09:08:15.839Z,6.50
2023-01-17T09:09:18.353Z,6.50
2023-01-17T09:10:22.697Z,6.50
2023-01-17T09:11:24.493Z,6.50
2023-01-17T09:12:26.871Z,6.60
2023-01-17T09:13:28.544Z,6.60
2023-01-17T09:14:30.537Z,6.60
2023-01-17T09:15:34.262Z,6.70
2023-01-17T09:16:36.453Z,6.70
2023-01-17T09:17:38.465Z,6.70
2023-01-17T09:18:40.189Z,6.70
2023-01-17T09:19:47.736Z,6.60
2023-01-17T09:20:49.643Z,6.60
2023-01-17T09:21:51.572Z,6.70
2023-01-17T09:24:49.333Z,6.70
2023-01-17T09:25:57.791Z,6.60
2023-01-17T09:27:02.567Z,6.60
2023-01-17T09:28:04.284Z,6.60
2023-01-17T09:29:05.963Z,6.50
2023-01-17T09:30:10.151Z,6.50
2023-01-17T09:31:12.430Z,6.50
2023-01-17T09:32:17.409Z,6.60
2023-01-17T09:33:20.107Z,6.50
2023-01-17T09:34:24.312Z,6.50
2023-01-17T09:35:25.987Z,6.40
2023-01-17T09:36:29.638Z,6.40
2023-01-17T09:37:31.590Z,6.40
2023-01-17T09:38:33.397Z,6.40
2023-01-17T09:39:36.187Z,6.30
2023-01-17T09:40:43.970Z,6.30
2023-01-17T09:41:48.873Z,6.40
2023-01-17T09:42:54.172Z,6.40
2023-01-17T09:44:16.956Z,6.40
2023-01-17T09:45:20.383Z,6.50
2023-01-17T09:46:26.789Z,6.40
2023-01-17T09:47:42.468Z,6.50
2023-01-17T09:48:45.471Z,6.50
2023-01-17T09:49:50.349Z,6.50
2023-01-17T09:51:10.160Z,6.50
2023-01-17T09:52:16.410Z,6.50
2023-01-17T09:53:21.071Z,6.50
2023-01-17T09:54:25.796Z,6.50
2023-01-17T09:55:39.850Z,6.50
2023-01-17T09:56:49.138Z,6.50
2023-01-17T09:58:03.049Z,6.50
2023-01-17T09:59:33.211Z,6.50
2023-01-17T10:01:08.285Z,6.50
2023-01-17T10:02:38.957Z,6.50
2023-01-17T10:03:55.395Z,6.50
2023-01-17T10:05:28.718Z,6.60
2023-01-17T10:07:06.823Z,6.60
2023-01-17T10:08:13.189Z,6.70
2023-01-17T10:09:30.398Z,6.80
2023-01-17T10:10:42.623Z,6.80
2023-01-17T10:12:15.120Z,6.80
2023-01-17T10:13:52.790Z,6.90
2023-01-17T10:15:13.378Z,7.00
2023-01-17T10:16:26.885Z,7.00
2023-01-17T10:17:40.945Z,7.10
2023-01-17T10:19:07.917Z,7.10
2023-01-17T10:20:35.593Z,7.10
2023-01-17T10:22:10.193Z,7.20
2023-01-17T10:23:12.733Z,7.20
2023-01-17T10:24:17.555Z,7.20
2023-01-17T10:25:42.705Z,7.30
2023-01-17T10:26:48.800Z,7.30
2023-01-17T10:28:04.335Z,7.30
2023-01-17T10:29:14.793Z,7.30
2023-01-17T10:30:35.175Z,7.30
2023-01-17T10:31:45.869Z,7.40
2023-01-17T10:32:49.965Z,7.40
2023-01-17T10:33:57.478Z,7.40
2023-01-17T10:35:06.873Z,7.50
2023-01-17T10:36:21.547Z,7.50
2023-01-17T10:37:40.410Z,7.50
2023-01-17T10:38:48.557Z,7.40
2023-01-17T10:39:52.236Z,7.50
2023-01-17T10:41:30.486Z,7.50
2023-01-17T10:42:43.724Z,7.20
2023-01-17T10:43:48.366Z,7.50
2023-01-17T10:45:02.580Z,7.50
2023-01-17T10:46:05.240Z,7.50
2023-01-17T10:47:06.947Z,7.50
2023-01-17T10:48:21.261Z,7.50
2023-01-17T10:49:28.622Z,7.70
2023-01-17T10:50:34.535Z,7.60
2023-01-17T10:51:51.849Z,7.70
2023-01-17T10:53:06.048Z,7.70
2023-01-17T10:54:27.474Z,7.80
2023-01-17T10:55:42.570Z,7.80
2023-01-17T10:56:44.276Z,7.90
2023-01-17T10:57:48.648Z,7.90
2023-01-17T10:59:05.874Z,7.90
2023-01-17T11:00:34.282Z,8.00
2023-01-17T11:01:36.198Z,7.90
2023-01-17T11:02:45.206Z,8.00
2023-01-17T11:03:51.061Z,8.10
2023-01-17T11:04:55.951Z,8.00
2023-01-17T11:06:20.669Z,8.10
2023-01-17T11:07:25.445Z,8.00
2023-01-17T11:08:27.816Z,8.00
2023-01-17T11:09:41.364Z,8.00
2023-01-17T11:10:46.554Z,8.00
2023-01-17T11:11:51.971Z,8.10
2023-01-17T11:12:53.864Z,8.10
2023-01-17T11:13:57.291Z,8.10
2023-01-17T11:15:04.464Z,8.10
2023-01-17T11:16:21.276Z,8.20
2023-01-17T11:17:23.147Z,8.20
2023-01-17T11:18:31.361Z,8.20
2023-01-17T11:19:36.271Z,8.30
2023-01-17T11:20:45.376Z,8.30
2023-01-17T11:21:57.744Z,8.30
2023-01-17T11:23:14.380Z,8.40
2023-01-17T11:24:25.471Z,8.40
2023-01-17T11:25:28.467Z,8.50
2023-01-17T11:26:35.381Z,8.60
2023-01-17T11:27:41.193Z,8.60
2023-01-17T11:28:43.283Z,8.70
2023-01-17T11:29:45.128Z,8.70
2023-01-17T11:31:16.956Z,8.80
2023-01-17T11:32:32.368Z,8.80
2023-01-17T11:33:45.926Z,8.80
2023-01-17T11:35:06.684Z,8.80
2023-01-17T11:36:19.383Z,8.50
2023-01-17T11:37:22.808Z,8.80
2023-01-17T11:38:25.273Z,8.80
2023-01-17T11:39:30.207Z,8.80
2023-01-17T11:40:44.516Z,8.70
2023-01-17T11:41:47.896Z,8.80
2023-01-17T11:43:05.152Z,8.80
2023-01-17T11:44:36.512Z,8.70
2023-01-17T11:45:39.203Z,8.70
2023-01-17T11:46:43.274Z,8.80
2023-01-17T11:47:45.124Z,8.80
2023-01-17T11:48:56.494Z,8.80
2023-01-17T11:49:58.413Z,8.80
2023-01-17T11:51:06.349Z,8.80
2023-01-17T11:52:39.270Z,8.90
2023-01-17T11:53:48.164Z,8.90
2023-01-17T11:54:50.779Z,8.90
2023-01-17T11:56:12.336Z,8.90
2023-01-17T11:57:28.313Z,8.90
2023-01-17T11:58:32.121Z,8.90
2023-01-17T11:59:37.521Z,9.00
2023-01-17T12:00:46.349Z,9.00
2023-01-17T12:01:58.417Z,9.10
2023-01-17T12:03:41.771Z,9.10
2023-01-17T12:04:48.021Z,9.10
2023-01-17T12:06:15.843Z,9.10
2023-01-17T12:07:32.783Z,9.10
2023-01-17T12:08:46.721Z,9.10
2023-01-17T12:09:57.860Z,9.10
2023-01-17T12:11:32.446Z,9.00
2023-01-17T12:13:16.017Z,9.00
2023-01-17T12:14:35.735Z,9.00
2023-01-17T12:16:27.792Z,9.00
2023-01-17T12:18:00.007Z,9.00
2023-01-17T12:19:34.338Z,9.00
2023-01-17T12:21:06.951Z,8.90
2023-01-17T12:22:21.507Z,8.90
2023-01-17T12:23:31.287Z,8.90
2023-01-17T12:24:57.159Z,8.90
2023-01-17T12:26:21.994Z,8.90
2023-01-17T12:27:43.506Z,8.90
2023-01-17T12:29:15.946Z,8.90
2023-01-17T12:30:55.311Z,8.90
2023-01-17T12:32:27.940Z,8.90
2023-01-17T12:34:11.558Z,8.90
2023-01-17T12:35:28.373Z,8.90
2023-01-17T12:36:53.710Z,8.80
2023-01-17T12:38:05.388Z,8.80
2023-01-17T12:39:15.927Z,8.80
2023-01-17T12:40:18.049Z,8.80
2023-01-17T12:41:33.256Z,8.80
2023-01-17T12:42:43.657Z,8.80
2023-01-17T12:43:45.983Z,8.90
2023-01-17T12:45:07.122Z,8.90
2023-01-17T12:46:38.808Z,8.90
2023-01-17T12:47:45.542Z,8.90
2023-01-17T12:48:55.213Z,8.90
2023-01-17T12:50:19.279Z,8.90
2023-01-17T12:51:37.287Z,8.90
2023-01-17T12:52:52.517Z,8.90
2023-01-17T12:54:12.445Z,9.00
2023-01-17T12:55:19.543Z,9.00
2023-01-17T12:57:00.515Z,9.00
2023-01-17T12:58:07.397Z,9.00
2023-01-17T12:59:32.492Z,8.90
2023-01-17T13:00:37.837Z,8.90
2023-01-17T13:01:41.906Z,8.90
2023-01-17T13:03:20.316Z,8.90
2023-01-17T13:04:41.975Z,8.90
2023-01-17T13:05:51.121Z,8.90
2023-01-17T13:06:59.126Z,8.90
2023-01-17T13:08:39.265Z,8.90
2023-01-17T13:09:55.722Z,8.90
2023-01-17T13:10:59.887Z,8.90
2023-01-17T13:12:12.326Z,8.90
2023-01-17T13:13:26.440Z,8.90
2023-01-17T13:14:28.409Z,8.80
2023-01-17T13:15:37.865Z,8.80
2023-01-17T13:16:59.294Z,8.80
2023-01-17T13:18:15.632Z,8.80
2023-01-17T13:19:33.539Z,8.80
2023-01-17T13:20:41.209Z,8.80
2023-01-17T13:21:43.449Z,8.80
2023-01-17T13:22:47.195Z,8.80
2023-01-17T13:24:04.295Z,8.80
2023-01-17T13:25:21.513Z,8.80
2023-01-17T13:26:47.733Z,8.80
2023-01-17T13:28:02.562Z,8.70
2023-01-17T13:29:29.103Z,8.70
2023-01-17T13:30:48.512Z,8.70
2023-01-17T13:32:01.977Z,8.70
2023-01-17T13:33:16.142Z,8.40
2023-01-17T13:34:36.969Z,8.70
2023-01-17T13:36:05.176Z,8.70
2023-01-17T13:37:26.726Z,8.70
2023-01-17T13:38:57.671Z,8.70
2023-01-17T13:40:29.649Z,8.60
2023-01-17T13:41:34.553Z,8.60
2023-01-17T13:42:58.671Z,8.60
2023-01-17T13:44:20.643Z,8.60
2023-01-17T13:45:27.840Z,8.60
2023-01-17T13:46:31.849Z,8.60
2023-01-17T13:47:40.795Z,8.60
2023-01-17T13:48:42.690Z,8.60
2023-01-17T13:49:46.310Z,8.60
2023-01-17T13:50:56.650Z,8.60
2023-01-17T13:52:02.987Z,8.60
2023-01-17T13:53:35.148Z,8.60
2023-01-17T13:54:46.945Z,8.60
2023-01-17T13:55:53.371Z,8.60
2023-01-17T13:57:44.186Z,8.70
2023-01-17T13:58:54.592Z,8.60
2023-01-17T13:59:58.223Z,8.60
2023-01-17T14:01:00.118Z,8.70
2023-01-17T14:02:03.741Z,8.70
2023-01-17T14:03:10.624Z,8.70
2023-01-17T14:04:13.108Z,8.70
2023-01-17T14:05:20.657Z,8.70
2023-01-17T14:06:41.631Z,8.70
2023-01-17T14:08:13.755Z,8.60
2023-01-17T14:09:32.730Z,8.70
2023-01-17T14:10:53.549Z,8.70
2023-01-17T14:12:02.824Z,8.70
2023-01-17T14:13:24.162Z,8.70
2023-01-17T14:14:41.664Z,8.70
2023-01-17T14:15:51.006Z,8.50
2023-01-17T14:16:52.868Z,8.60
2023-01-17T14:17:59.929Z,8.60
2023-01-17T14:19:02.627Z,8.70
2023-01-17T14:20:12.474Z,8.70
2023-01-17T14:21:20.303Z,8.70
2023-01-17T14:22:25.710Z,8.70
2023-01-17T14:23:34.802Z,8.70
2023-01-17T14:25:15.156Z,8.70
2023-01-17T14:26:43.305Z,8.70
2023-01-17T14:27:49.999Z,8.70
2023-01-17T14:28:52.475Z,8.70
2023-01-17T14:30:00.051Z,8.70
2023-01-17T14:31:09.982Z,8.70
2023-01-17T14:32:15.769Z,8.70
2023-01-17T14:33:23.099Z,8.70
2023-01-17T14:34:25.374Z,8.70
2023-01-17T14:35:36.186Z,8.70
2023-01-17T14:36:38.586Z,8.70
2023-01-17T14:37:51.705Z,8.70
2023-01-17T14:38:53.615Z,8.70
2023-01-17T14:39:55.566Z,8.70
2023-01-17T14:41:30.484Z,8.70
2023-01-17T14:42:33.517Z,8.70
2023-01-17T14:43:46.133Z,8.70
2023-01-17T14:44:56.760Z,8.70
2023-01-17T14:46:08.497Z,8.70
2023-01-17T14:47:14.124Z,8.70
2023-01-17T14:48:22.858Z,8.70
2023-01-17T14:49:26.930Z,8.70
2023-01-17T14:50:35.162Z,8.70
2023-01-17T14:51:38.621Z,8.70
2023-01-17T14:52:40.652Z,8.70
2023-01-17T14:53:56.335Z,8.70
2023-01-17T14:55:04.467Z,8.70
2023-01-17T14:56:19.747Z,8.60
2023-01-17T14:57:29.709Z,8.60
2023-01-17T14:58:34.682Z,8.60
2023-01-17T14:59:36.921Z,8.60
2023-01-17T15:00:41.534Z,8.60
2023-01-17T15:01:52.514Z,8.60
2023-01-17T15:03:04.488Z,8.30
2023-01-17T15:04:06.424Z,8.60
2023-01-17T15:05:17.848Z,8.60
2023-01-17T15:06:40.540Z,8.60
2023-01-17T15:07:45.849Z,8.60
2023-01-17T15:08:49.365Z,8.60
2023-01-17T15:09:51.439Z,8.60
2023-01-17T15:10:55.327Z,8.60
2023-01-17T15:11:58.154Z,8.50
2023-01-17T15:13:09.397Z,8.50
2023-01-17T15:14:19.529Z,8.50
2023-01-17T15:15:27.708Z,8.50